WetterOnline ( https://www.wetteronline.de )

Wetter aktuell Putgarten

Aktuelles Wetter: Kap Arkona/Rügen (42m)

6-stündlich | Neueste Meldungen
Ortszeit Temperatur Wetter
Fr, 23.02. 13:00 8.2° C wolkig
Fr, 23.02. 7:00 5.8° C wolkenlos
Fr, 23.02. 1:00 7.6° C leichter Regen
Do, 22.02. 19:00 6.3° C Nebel
Do, 22.02. 13:00 6.0° C bewölkt
Do, 22.02. 7:00 5.6° C leichter Regen
Do, 22.02. 1:00 6.2° C bedeckt
Mi, 21.02. 19:00 6.5° C bewölkt
Ortszeit Temperatur Wetter
Fr, 23.02. 17:00 7.3° C bewölkt
Fr, 23.02. 16:50 7.3° C bewölkt
Fr, 23.02. 16:40 7.5° C bewölkt
Fr, 23.02. 16:30 7.9° C wolkig
Fr, 23.02. 16:20 7.9° C wolkig
Fr, 23.02. 16:10 8.1° C leicht bewölkt
Fr, 23.02. 16:00 8.6° C fast wolkenlos
Fr, 23.02. 15:30 8.8° C leicht bewölkt
Fr, 23.02. 15:00 8.1° C wolkig
Fr, 23.02. 14:30 8.5° C leicht bewölkt
Fr, 23.02. 14:00 8.9° C leicht bewölkt
Ortszeit Relative Feuchte Sichtweite
Fr, 23.02. 13:00 60% 50 km
Fr, 23.02. 7:00 78% >70 km
Fr, 23.02. 1:00 97% 22 km
Do, 22.02. 19:00 99% 0.3 km
Do, 22.02. 13:00 98% 4.4 km
Do, 22.02. 7:00 94% 13 km
Do, 22.02. 1:00 87% 27 km
Mi, 21.02. 19:00 94% 28 km
Ortszeit Relative Feuchte Sichtweite
Fr, 23.02. 17:00 64% 65 km
Fr, 23.02. 16:50 64% -
Fr, 23.02. 16:40 62% -
Fr, 23.02. 16:30 61% >70 km
Fr, 23.02. 16:20 61% -
Fr, 23.02. 16:10 59% -
Fr, 23.02. 16:00 60% >70 km
Fr, 23.02. 15:30 60% 65 km
Fr, 23.02. 15:00 61% 40 km
Fr, 23.02. 14:30 59% 45 km
Fr, 23.02. 14:00 59% >70 km
Ortszeit Niederschlagsmenge Niederschlagsart
Fr, 23.02. 13:00 0.0 l/m2 in 6 Std. -
Fr, 23.02. 7:00 0.3 l/m2 in 12 Std. Regen
Fr, 23.02. 1:00 0.2 l/m2 in 6 Std. Regen
Do, 22.02. 19:00 0.6 l/m2 in 12 Std. Regen
Do, 22.02. 13:00 0.5 l/m2 in 6 Std. Regen
Do, 22.02. 7:00 0.7 l/m2 in 12 Std. Regen
Do, 22.02. 1:00 0.0 l/m2 in 6 Std. -
Mi, 21.02. 19:00 0.1 l/m2 in 12 Std. -
Ortszeit Niederschlagsmenge Niederschlagsart
Fr, 23.02. 17:00 0.0 l/m2 in 1 Std. -
Fr, 23.02. 16:50 keine Meldung -
Fr, 23.02. 16:40 keine Meldung -
Fr, 23.02. 16:30 0.0 l/m2 in 30 Min -
Fr, 23.02. 16:20 keine Meldung -
Fr, 23.02. 16:10 keine Meldung -
Fr, 23.02. 16:00 0.0 l/m2 in 1 Std. -
Fr, 23.02. 15:30 0.0 l/m2 in 30 Min -
Fr, 23.02. 15:00 0.0 l/m2 in 1 Std. -
Fr, 23.02. 14:30 0.0 l/m2 in 30 Min -
Fr, 23.02. 14:00 0.0 l/m2 in 1 Std. -
Ortszeit Stärke Spitze Richtung
km/h Bft. km/h Grad Sektor
Fr, 23.02. 13:00 43 6 76 240° SW
Fr, 23.02. 7:00 47 6 83 240° SW
Fr, 23.02. 1:00 36 5 50 190° S
Do, 22.02. 19:00 17 3 30 170° S
Do, 22.02. 13:00 22 4 36 190° S
Do, 22.02. 7:00 20 4 37 190° S
Do, 22.02. 1:00 30 5 39 190° S
Mi, 21.02. 19:00 22 4 70 240° SW
Ortszeit Stärke Spitze Richtung
km/h Bft. km/h Grad Sektor
Fr, 23.02. 17:00 31 5 43 200° S
Fr, 23.02. 16:50 31 5 - 200° S
Fr, 23.02. 16:40 32 5 - 200° S
Fr, 23.02. 16:30 31 5 43 200° S
Fr, 23.02. 16:20 31 5 - 200° S
Fr, 23.02. 16:10 33 5 - 210° SW
Fr, 23.02. 16:00 30 5 41 210° SW
Fr, 23.02. 15:30 30 5 39 220° SW
Fr, 23.02. 15:00 31 5 54 230° SW
Fr, 23.02. 14:30 39 6 54 230° SW
Fr, 23.02. 14:00 37 5 61 230° SW
Ortszeit Untergrenze Bedeckung Gattung
total tief tief mittel hoch
Fr, 23.02. 13:00 6900 m 8/8 8/8 - - -
Fr, 23.02. 7:00 - 0/8 0/8 - - -
Fr, 23.02. 1:00 240 m 8/8 3/8 - - -
Do, 22.02. 19:00 <30 m 8/8 0/8 - - -
Do, 22.02. 13:00 90 m 7/8 7/8 - - -
Do, 22.02. 7:00 570 m 8/8 8/8 - - -
Do, 22.02. 1:00 3300 m 8/8 8/8 - - -
Mi, 21.02. 19:00 630 m 8/8 4/8 - - -
Ortszeit Bedeckungsgrad in Achtel und Wolkenuntergrenze
Fr, 23.02. 17:00 6(1350m) 7(8100m)
Fr, 23.02. 16:50 6(1350m) 7(8100m)
Fr, 23.02. 16:40 7
Fr, 23.02. 16:30 1(1260m) 6(7800m) 7(8400m)
Fr, 23.02. 16:20 1(1260m) 6(7800m) 7(8400m)
Fr, 23.02. 16:10 4
Fr, 23.02. 16:00 2(8100m)
Fr, 23.02. 15:30 4(1290m)
Fr, 23.02. 15:00 5(1290m) 7(6900m)
Fr, 23.02. 14:30 1(1410m) 6(7200m)
Fr, 23.02. 14:00 1(1170m) 3(7200m)
Ortszeit Luftdruck NN (hPa) Tendenz (hPa in 3 Std.)
Fr, 23.02. 13:00 993 + 2,7
Fr, 23.02. 7:00 986 + 5,0
Fr, 23.02. 1:00 980 - 3,7
Do, 22.02. 19:00 986 - 2,8
Do, 22.02. 13:00 992 - 2,2
Do, 22.02. 7:00 997 - 2,2
Do, 22.02. 1:00 1003 - 3,4
Mi, 21.02. 19:00 1009 - 1,0
Ortszeit Luftdruck NN (hPa) Tendenz (hPa in 3 Std.)
Fr, 23.02. 17:00 996 + 1,9
Fr, 23.02. 16:50 996 keine Meldung
Fr, 23.02. 16:40 996 keine Meldung
Fr, 23.02. 16:30 996 + 2,0
Fr, 23.02. 16:20 996 keine Meldung
Fr, 23.02. 16:10 996 keine Meldung
Fr, 23.02. 16:00 995 + 2,1
Fr, 23.02. 15:30 995 + 2,3
Fr, 23.02. 15:00 995 + 2,1
Fr, 23.02. 14:30 995 + 2,4
Fr, 23.02. 14:00 994 + 2,6
Ortszeit Schneehöhe (cm)
Fr, 23.02. 13:00 0
Fr, 23.02. 7:00 0
Fr, 23.02. 1:00 0
Do, 22.02. 19:00 0
Do, 22.02. 13:00 0
Do, 22.02. 7:00 0
Do, 22.02. 1:00 0
Mi, 21.02. 19:00 0
Ortszeit Schneehöhe (cm)
Fr, 23.02. 17:00 0
Fr, 23.02. 16:50 0
Fr, 23.02. 16:40 -
Fr, 23.02. 16:30 0
Fr, 23.02. 16:20 0
Fr, 23.02. 16:10 -
Fr, 23.02. 16:00 0
Fr, 23.02. 15:30 0
Fr, 23.02. 15:00 0
Fr, 23.02. 14:30 0
Fr, 23.02. 14:00 0
Link zu dieser Seite / Seite empfehlen

Das Wetter in ...